sensor_id;sensor_type;location;lat;lon;timestamp;P1;durP1;ratioP1;P2;durP2;ratioP2
25637;SDS011;13496;51.040;13.680;2024-02-14T00:03:37;1.90;;;1.80;;
25637;SDS011;13496;51.040;13.680;2024-02-14T00:08:39;2.10;;;1.80;;
25637;SDS011;13496;51.040;13.680;2024-02-14T00:13:41;2.90;;;2.08;;
25637;SDS011;13496;51.040;13.680;2024-02-14T00:18:43;2.80;;;2.10;;
25637;SDS011;13496;51.040;13.680;2024-02-14T00:23:45;2.22;;;2.00;;
25637;SDS011;13496;51.040;13.680;2024-02-14T00:28:47;2.00;;;1.85;;
25637;SDS011;13496;51.040;13.680;2024-02-14T00:33:48;2.40;;;1.90;;
25637;SDS011;13496;51.040;13.680;2024-02-14T00:38:50;2.92;;;1.98;;
25637;SDS011;13496;51.040;13.680;2024-02-14T00:43:52;3.38;;;2.25;;
25637;SDS011;13496;51.040;13.680;2024-02-14T00:48:54;1.80;;;1.70;;
25637;SDS011;13496;51.040;13.680;2024-02-14T00:53:57;1.80;;;1.70;;
25637;SDS011;13496;51.040;13.680;2024-02-14T00:58:59;1.98;;;1.83;;
25637;SDS011;13496;51.040;13.680;2024-02-14T01:04:01;2.50;;;2.00;;
25637;SDS011;13496;51.040;13.680;2024-02-14T01:09:02;1.83;;;1.73;;
25637;SDS011;13496;51.040;13.680;2024-02-14T01:14:04;2.75;;;1.90;;
25637;SDS011;13496;51.040;13.680;2024-02-14T01:19:06;2.03;;;1.73;;
25637;SDS011;13496;51.040;13.680;2024-02-14T01:24:08;2.13;;;1.50;;
25637;SDS011;13496;51.040;13.680;2024-02-14T01:29:10;1.77;;;1.67;;
25637;SDS011;13496;51.040;13.680;2024-02-14T01:34:12;1.92;;;1.73;;
25637;SDS011;13496;51.040;13.680;2024-02-14T01:39:13;1.85;;;1.73;;
25637;SDS011;13496;51.040;13.680;2024-02-14T01:44:16;1.95;;;1.70;;
25637;SDS011;13496;51.040;13.680;2024-02-14T01:49:19;1.92;;;1.42;;
25637;SDS011;13496;51.040;13.680;2024-02-14T01:54:20;1.60;;;1.50;;
25637;SDS011;13496;51.040;13.680;2024-02-14T01:59:23;1.70;;;1.60;;
25637;SDS011;13496;51.040;13.680;2024-02-14T02:04:25;1.80;;;1.70;;
25637;SDS011;13496;51.040;13.680;2024-02-14T02:09:28;2.30;;;1.65;;
25637;SDS011;13496;51.040;13.680;2024-02-14T02:14:29;1.95;;;1.85;;
25637;SDS011;13496;51.040;13.680;2024-02-14T02:19:44;1.60;;;1.50;;
25637;SDS011;13496;51.040;13.680;2024-02-14T02:25:06;1.85;;;1.75;;
25637;SDS011;13496;51.040;13.680;2024-02-14T02:30:11;1.92;;;1.67;;
25637;SDS011;13496;51.040;13.680;2024-02-14T02:35:15;2.20;;;1.85;;
25637;SDS011;13496;51.040;13.680;2024-02-14T02:40:36;1.80;;;1.65;;
25637;SDS011;13496;51.040;13.680;2024-02-14T02:45:58;1.75;;;1.65;;
25637;SDS011;13496;51.040;13.680;2024-02-14T02:51:35;1.80;;;1.67;;
25637;SDS011;13496;51.040;13.680;2024-02-14T02:56:57;1.88;;;1.70;;
25637;SDS011;13496;51.040;13.680;2024-02-14T03:02:00;2.38;;;2.03;;
25637;SDS011;13496;51.040;13.680;2024-02-14T03:07:21;2.30;;;2.10;;
25637;SDS011;13496;51.040;13.680;2024-02-14T03:12:45;2.40;;;1.90;;
25637;SDS011;13496;51.040;13.680;2024-02-14T03:18:08;2.20;;;1.95;;
25637;SDS011;13496;51.040;13.680;2024-02-14T03:23:11;2.38;;;1.70;;
25637;SDS011;13496;51.040;13.680;2024-02-14T03:28:13;1.90;;;1.80;;
25637;SDS011;13496;51.040;13.680;2024-02-14T03:33:15;2.08;;;1.88;;
25637;SDS011;13496;51.040;13.680;2024-02-14T03:38:27;1.92;;;1.73;;
25637;SDS011;13496;51.040;13.680;2024-02-14T03:43:29;1.70;;;1.60;;
25637;SDS011;13496;51.040;13.680;2024-02-14T03:48:31;1.73;;;1.60;;
25637;SDS011;13496;51.040;13.680;2024-02-14T03:53:33;1.75;;;1.65;;
25637;SDS011;13496;51.040;13.680;2024-02-14T03:58:34;1.67;;;1.58;;
25637;SDS011;13496;51.040;13.680;2024-02-14T04:03:38;1.73;;;1.63;;
25637;SDS011;13496;51.040;13.680;2024-02-14T04:08:40;2.05;;;1.85;;
25637;SDS011;13496;51.040;13.680;2024-02-14T04:13:42;1.55;;;1.45;;
25637;SDS011;13496;51.040;13.680;2024-02-14T04:18:43;1.67;;;1.58;;
25637;SDS011;13496;51.040;13.680;2024-02-14T04:23:45;2.00;;;1.70;;
25637;SDS011;13496;51.040;13.680;2024-02-14T04:28:47;1.88;;;1.75;;
25637;SDS011;13496;51.040;13.680;2024-02-14T04:33:49;1.40;;;1.30;;
25637;SDS011;13496;51.040;13.680;2024-02-14T04:38:53;2.08;;;1.90;;
25637;SDS011;13496;51.040;13.680;2024-02-14T04:43:57;1.50;;;1.40;;
25637;SDS011;13496;51.040;13.680;2024-02-14T04:48:58;1.85;;;1.70;;
25637;SDS011;13496;51.040;13.680;2024-02-14T04:54:00;1.45;;;1.35;;
25637;SDS011;13496;51.040;13.680;2024-02-14T04:59:02;1.95;;;1.70;;
25637;SDS011;13496;51.040;13.680;2024-02-14T05:04:04;1.42;;;1.33;;
25637;SDS011;13496;51.040;13.680;2024-02-14T05:09:06;1.58;;;1.48;;
25637;SDS011;13496;51.040;13.680;2024-02-14T05:14:07;1.67;;;1.58;;
25637;SDS011;13496;51.040;13.680;2024-02-14T05:19:09;1.52;;;1.42;;
25637;SDS011;13496;51.040;13.680;2024-02-14T05:24:12;1.50;;;1.40;;
25637;SDS011;13496;51.040;13.680;2024-02-14T05:29:13;1.92;;;1.50;;
25637;SDS011;13496;51.040;13.680;2024-02-14T05:34:16;1.83;;;1.60;;
25637;SDS011;13496;51.040;13.680;2024-02-14T05:39:17;1.63;;;1.50;;
25637;SDS011;13496;51.040;13.680;2024-02-14T05:44:20;2.15;;;1.60;;
25637;SDS011;13496;51.040;13.680;2024-02-14T05:49:26;1.60;;;1.50;;
25637;SDS011;13496;51.040;13.680;2024-02-14T05:54:28;1.55;;;1.45;;
25637;SDS011;13496;51.040;13.680;2024-02-14T05:59:30;2.28;;;1.58;;
25637;SDS011;13496;51.040;13.680;2024-02-14T06:04:32;1.60;;;1.45;;
25637;SDS011;13496;51.040;13.680;2024-02-14T06:09:34;1.60;;;1.50;;
25637;SDS011;13496;51.040;13.680;2024-02-14T06:14:36;1.65;;;1.55;;
25637;SDS011;13496;51.040;13.680;2024-02-14T06:19:38;1.83;;;1.58;;
25637;SDS011;13496;51.040;13.680;2024-02-14T06:24:40;1.63;;;1.52;;
25637;SDS011;13496;51.040;13.680;2024-02-14T06:29:42;1.65;;;1.55;;
25637;SDS011;13496;51.040;13.680;2024-02-14T06:34:44;1.65;;;1.55;;
25637;SDS011;13496;51.040;13.680;2024-02-14T06:39:46;1.80;;;1.70;;
25637;SDS011;13496;51.040;13.680;2024-02-14T06:44:49;1.60;;;1.50;;
25637;SDS011;13496;51.040;13.680;2024-02-14T06:49:51;1.90;;;1.48;;
25637;SDS011;13496;51.040;13.680;2024-02-14T06:54:53;3.10;;;1.88;;
25637;SDS011;13496;51.040;13.680;2024-02-14T06:59:55;4.15;;;1.98;;
25637;SDS011;13496;51.040;13.680;2024-02-14T07:04:57;3.03;;;1.80;;
25637;SDS011;13496;51.040;13.680;2024-02-14T07:09:58;2.30;;;1.83;;
25637;SDS011;13496;51.040;13.680;2024-02-14T07:15:00;2.78;;;1.70;;
25637;SDS011;13496;51.040;13.680;2024-02-14T07:20:02;3.80;;;1.95;;
25637;SDS011;13496;51.040;13.680;2024-02-14T07:25:05;2.22;;;1.70;;
25637;SDS011;13496;51.040;13.680;2024-02-14T07:30:09;3.40;;;1.95;;
25637;SDS011;13496;51.040;13.680;2024-02-14T07:35:11;3.80;;;1.77;;
25637;SDS011;13496;51.040;13.680;2024-02-14T07:40:14;2.15;;;1.88;;
25637;SDS011;13496;51.040;13.680;2024-02-14T07:45:33;1.70;;;1.60;;
25637;SDS011;13496;51.040;13.680;2024-02-14T07:50:35;1.80;;;1.60;;
25637;SDS011;13496;51.040;13.680;2024-02-14T07:55:37;3.05;;;1.60;;
25637;SDS011;13496;51.040;13.680;2024-02-14T08:00:38;3.08;;;1.70;;
25637;SDS011;13496;51.040;13.680;2024-02-14T08:05:40;2.05;;;1.58;;
25637;SDS011;13496;51.040;13.680;2024-02-14T08:10:44;1.85;;;1.60;;
25637;SDS011;13496;51.040;13.680;2024-02-14T08:15:45;1.75;;;1.50;;
25637;SDS011;13496;51.040;13.680;2024-02-14T08:20:48;2.88;;;1.60;;
25637;SDS011;13496;51.040;13.680;2024-02-14T08:25:50;2.20;;;1.40;;
25637;SDS011;13496;51.040;13.680;2024-02-14T08:30:52;2.13;;;1.52;;
25637;SDS011;13496;51.040;13.680;2024-02-14T08:35:54;3.28;;;1.55;;
25637;SDS011;13496;51.040;13.680;2024-02-14T08:40:58;1.73;;;1.30;;
25637;SDS011;13496;51.040;13.680;2024-02-14T08:46:00;2.70;;;1.60;;
25637;SDS011;13496;51.040;13.680;2024-02-14T08:51:02;1.67;;;1.52;;
25637;SDS011;13496;51.040;13.680;2024-02-14T08:56:05;2.95;;;1.70;;
25637;SDS011;13496;51.040;13.680;2024-02-14T09:01:07;1.73;;;1.20;;
25637;SDS011;13496;51.040;13.680;2024-02-14T09:06:10;1.35;;;1.25;;
25637;SDS011;13496;51.040;13.680;2024-02-14T09:11:12;1.60;;;1.50;;
25637;SDS011;13496;51.040;13.680;2024-02-14T09:16:14;3.10;;;1.50;;
25637;SDS011;13496;51.040;13.680;2024-02-14T09:21:19;1.40;;;1.30;;
25637;SDS011;13496;51.040;13.680;2024-02-14T09:26:21;1.60;;;1.50;;
25637;SDS011;13496;51.040;13.680;2024-02-14T09:31:23;1.30;;;1.20;;
25637;SDS011;13496;51.040;13.680;2024-02-14T09:36:25;1.58;;;1.30;;
25637;SDS011;13496;51.040;13.680;2024-02-14T09:41:29;1.85;;;1.38;;
25637;SDS011;13496;51.040;13.680;2024-02-14T09:46:38;1.58;;;1.40;;
25637;SDS011;13496;51.040;13.680;2024-02-14T09:51:40;2.17;;;1.65;;
25637;SDS011;13496;51.040;13.680;2024-02-14T09:56:52;1.88;;;1.50;;
25637;SDS011;13496;51.040;13.680;2024-02-14T10:01:55;2.30;;;1.33;;
25637;SDS011;13496;51.040;13.680;2024-02-14T10:06:57;2.60;;;1.30;;
25637;SDS011;13496;51.040;13.680;2024-02-14T10:11:59;2.03;;;1.30;;
25637;SDS011;13496;51.040;13.680;2024-02-14T10:17:01;1.42;;;1.30;;
25637;SDS011;13496;51.040;13.680;2024-02-14T10:22:03;1.65;;;1.40;;
25637;SDS011;13496;51.040;13.680;2024-02-14T10:27:06;1.80;;;1.55;;
25637;SDS011;13496;51.040;13.680;2024-02-14T10:32:10;1.58;;;1.40;;
25637;SDS011;13496;51.040;13.680;2024-02-14T10:37:12;1.42;;;1.33;;
25637;SDS011;13496;51.040;13.680;2024-02-14T10:42:16;1.60;;;1.50;;
25637;SDS011;13496;51.040;13.680;2024-02-14T10:47:19;1.60;;;1.50;;
25637;SDS011;13496;51.040;13.680;2024-02-14T10:52:24;1.75;;;1.27;;
25637;SDS011;13496;51.040;13.680;2024-02-14T10:57:28;2.08;;;1.33;;
25637;SDS011;13496;51.040;13.680;2024-02-14T11:02:30;1.45;;;1.35;;
25637;SDS011;13496;51.040;13.680;2024-02-14T11:07:34;2.05;;;1.33;;
25637;SDS011;13496;51.040;13.680;2024-02-14T11:12:36;1.60;;;1.50;;
25637;SDS011;13496;51.040;13.680;2024-02-14T11:17:40;3.00;;;1.30;;
25637;SDS011;13496;51.040;13.680;2024-02-14T11:22:56;1.70;;;1.60;;
25637;SDS011;13496;51.040;13.680;2024-02-14T11:27:59;1.92;;;1.40;;
25637;SDS011;13496;51.040;13.680;2024-02-14T11:38:19;1.60;;;1.40;;
25637;SDS011;13496;51.040;13.680;2024-02-14T11:43:22;1.73;;;1.30;;
25637;SDS011;13496;51.040;13.680;2024-02-14T11:48:24;1.48;;;1.38;;
25637;SDS011;13496;51.040;13.680;2024-02-14T11:53:26;1.38;;;1.25;;
25637;SDS011;13496;51.040;13.680;2024-02-14T11:58:29;1.40;;;1.30;;
25637;SDS011;13496;51.040;13.680;2024-02-14T12:03:32;1.20;;;1.15;;
25637;SDS011;13496;51.040;13.680;2024-02-14T12:08:36;1.33;;;1.23;;
25637;SDS011;13496;51.040;13.680;2024-02-14T12:13:39;1.45;;;1.35;;
25637;SDS011;13496;51.040;13.680;2024-02-14T12:18:44;1.50;;;1.40;;
25637;SDS011;13496;51.040;13.680;2024-02-14T12:23:46;1.73;;;1.30;;
25637;SDS011;13496;51.040;13.680;2024-02-14T12:28:48;1.30;;;1.20;;
25637;SDS011;13496;51.040;13.680;2024-02-14T12:33:53;1.20;;;1.10;;
25637;SDS011;13496;51.040;13.680;2024-02-14T12:38:56;1.75;;;1.42;;
25637;SDS011;13496;51.040;13.680;2024-02-14T12:43:59;1.83;;;1.20;;
25637;SDS011;13496;51.040;13.680;2024-02-14T12:49:01;1.08;;;1.02;;
25637;SDS011;13496;51.040;13.680;2024-02-14T12:54:04;1.55;;;1.20;;
25637;SDS011;13496;51.040;13.680;2024-02-14T12:59:08;1.23;;;1.13;;
25637;SDS011;13496;51.040;13.680;2024-02-14T13:04:19;1.17;;;1.05;;
25637;SDS011;13496;51.040;13.680;2024-02-14T13:09:21;1.17;;;1.10;;
25637;SDS011;13496;51.040;13.680;2024-02-14T13:14:23;1.38;;;1.23;;
25637;SDS011;13496;51.040;13.680;2024-02-14T13:19:26;1.55;;;1.45;;
25637;SDS011;13496;51.040;13.680;2024-02-14T13:24:28;1.15;;;1.08;;
25637;SDS011;13496;51.040;13.680;2024-02-14T13:29:29;1.00;;;0.90;;
25637;SDS011;13496;51.040;13.680;2024-02-14T13:34:31;1.40;;;1.30;;
25637;SDS011;13496;51.040;13.680;2024-02-14T13:39:33;1.10;;;1.10;;
25637;SDS011;13496;51.040;13.680;2024-02-14T13:44:35;1.10;;;1.00;;
25637;SDS011;13496;51.040;13.680;2024-02-14T13:49:37;2.00;;;1.20;;
25637;SDS011;13496;51.040;13.680;2024-02-14T13:54:39;1.15;;;1.10;;
25637;SDS011;13496;51.040;13.680;2024-02-14T13:59:40;1.77;;;1.20;;
25637;SDS011;13496;51.040;13.680;2024-02-14T14:04:43;1.20;;;1.10;;
25637;SDS011;13496;51.040;13.680;2024-02-14T14:09:45;1.27;;;1.17;;
25637;SDS011;13496;51.040;13.680;2024-02-14T14:14:48;1.33;;;1.23;;
25637;SDS011;13496;51.040;13.680;2024-02-14T14:19:50;1.20;;;1.15;;
25637;SDS011;13496;51.040;13.680;2024-02-14T14:24:53;0.95;;;0.95;;
25637;SDS011;13496;51.040;13.680;2024-02-14T14:29:56;1.10;;;1.10;;
25637;SDS011;13496;51.040;13.680;2024-02-14T14:34:58;1.20;;;1.10;;
25637;SDS011;13496;51.040;13.680;2024-02-14T14:39:59;1.25;;;1.15;;
25637;SDS011;13496;51.040;13.680;2024-02-14T14:45:06;1.00;;;1.00;;
25637;SDS011;13496;51.040;13.680;2024-02-14T14:50:08;1.02;;;1.02;;
25637;SDS011;13496;51.040;13.680;2024-02-14T14:55:10;1.10;;;1.10;;
25637;SDS011;13496;51.040;13.680;2024-02-14T15:00:13;2.17;;;1.13;;
25637;SDS011;13496;51.040;13.680;2024-02-14T15:05:15;1.05;;;1.00;;
25637;SDS011;13496;51.040;13.680;2024-02-14T15:10:17;0.95;;;0.90;;
25637;SDS011;13496;51.040;13.680;2024-02-14T15:15:19;1.00;;;1.00;;
25637;SDS011;13496;51.040;13.680;2024-02-14T15:20:21;0.98;;;0.93;;
25637;SDS011;13496;51.040;13.680;2024-02-14T15:25:23;0.90;;;0.90;;
25637;SDS011;13496;51.040;13.680;2024-02-14T15:30:26;1.13;;;1.02;;
25637;SDS011;13496;51.040;13.680;2024-02-14T15:35:47;1.00;;;1.00;;
25637;SDS011;13496;51.040;13.680;2024-02-14T15:40:49;0.90;;;0.90;;
25637;SDS011;13496;51.040;13.680;2024-02-14T15:45:58;1.13;;;0.93;;
25637;SDS011;13496;51.040;13.680;2024-02-14T15:51:00;1.10;;;1.10;;
25637;SDS011;13496;51.040;13.680;2024-02-14T15:56:02;1.00;;;0.90;;
25637;SDS011;13496;51.040;13.680;2024-02-14T16:01:04;1.08;;;1.00;;
25637;SDS011;13496;51.040;13.680;2024-02-14T16:06:08;0.90;;;0.90;;
25637;SDS011;13496;51.040;13.680;2024-02-14T16:11:10;1.30;;;1.20;;
25637;SDS011;13496;51.040;13.680;2024-02-14T16:16:12;1.17;;;1.10;;
25637;SDS011;13496;51.040;13.680;2024-02-14T16:21:14;1.30;;;1.20;;
25637;SDS011;13496;51.040;13.680;2024-02-14T16:26:16;1.00;;;1.00;;
25637;SDS011;13496;51.040;13.680;2024-02-14T16:31:18;1.10;;;1.00;;
25637;SDS011;13496;51.040;13.680;2024-02-14T16:36:20;1.15;;;1.05;;
25637;SDS011;13496;51.040;13.680;2024-02-14T16:41:22;1.25;;;1.13;;
25637;SDS011;13496;51.040;13.680;2024-02-14T16:46:24;1.20;;;1.10;;
25637;SDS011;13496;51.040;13.680;2024-02-14T16:51:26;1.25;;;1.13;;
25637;SDS011;13496;51.040;13.680;2024-02-14T16:56:28;3.47;;;1.10;;
25637;SDS011;13496;51.040;13.680;2024-02-14T17:01:32;1.20;;;1.10;;
25637;SDS011;13496;51.040;13.680;2024-02-14T17:06:34;1.10;;;1.00;;
25637;SDS011;13496;51.040;13.680;2024-02-14T17:11:35;1.20;;;1.10;;
25637;SDS011;13496;51.040;13.680;2024-02-14T17:16:37;1.15;;;1.05;;
25637;SDS011;13496;51.040;13.680;2024-02-14T17:21:43;2.35;;;1.10;;
25637;SDS011;13496;51.040;13.680;2024-02-14T17:26:46;1.48;;;1.20;;
25637;SDS011;13496;51.040;13.680;2024-02-14T17:31:48;1.20;;;1.10;;
25637;SDS011;13496;51.040;13.680;2024-02-14T17:36:51;0.95;;;0.90;;
25637;SDS011;13496;51.040;13.680;2024-02-14T17:41:53;1.20;;;1.10;;
25637;SDS011;13496;51.040;13.680;2024-02-14T17:46:55;1.20;;;1.10;;
25637;SDS011;13496;51.040;13.680;2024-02-14T17:51:57;1.20;;;1.10;;
25637;SDS011;13496;51.040;13.680;2024-02-14T17:56:59;1.20;;;1.10;;
25637;SDS011;13496;51.040;13.680;2024-02-14T18:02:03;1.13;;;1.02;;
25637;SDS011;13496;51.040;13.680;2024-02-14T18:07:05;1.17;;;1.08;;
25637;SDS011;13496;51.040;13.680;2024-02-14T18:12:07;1.50;;;1.40;;
25637;SDS011;13496;51.040;13.680;2024-02-14T18:17:09;2.03;;;1.30;;
25637;SDS011;13496;51.040;13.680;2024-02-14T18:22:10;1.27;;;1.17;;
25637;SDS011;13496;51.040;13.680;2024-02-14T18:27:12;1.23;;;1.13;;
25637;SDS011;13496;51.040;13.680;2024-02-14T18:32:14;1.10;;;1.00;;
25637;SDS011;13496;51.040;13.680;2024-02-14T18:37:16;1.17;;;1.08;;
25637;SDS011;13496;51.040;13.680;2024-02-14T18:42:18;1.92;;;1.10;;
25637;SDS011;13496;51.040;13.680;2024-02-14T18:47:20;1.00;;;1.00;;
25637;SDS011;13496;51.040;13.680;2024-02-14T18:52:22;1.33;;;1.23;;
25637;SDS011;13496;51.040;13.680;2024-02-14T18:57:24;1.40;;;1.30;;
25637;SDS011;13496;51.040;13.680;2024-02-14T19:02:26;9.93;;;1.50;;
25637;SDS011;13496;51.040;13.680;2024-02-14T19:07:28;1.30;;;1.20;;
25637;SDS011;13496;51.040;13.680;2024-02-14T19:12:29;1.20;;;1.10;;
25637;SDS011;13496;51.040;13.680;2024-02-14T19:17:35;1.25;;;1.15;;
25637;SDS011;13496;51.040;13.680;2024-02-14T19:22:37;1.33;;;1.23;;
25637;SDS011;13496;51.040;13.680;2024-02-14T19:27:38;1.40;;;1.30;;
25637;SDS011;13496;51.040;13.680;2024-02-14T19:32:40;1.48;;;1.38;;
25637;SDS011;13496;51.040;13.680;2024-02-14T19:37:42;1.35;;;1.25;;
25637;SDS011;13496;51.040;13.680;2024-02-14T19:42:44;1.45;;;1.35;;
25637;SDS011;13496;51.040;13.680;2024-02-14T19:47:46;1.70;;;1.30;;
25637;SDS011;13496;51.040;13.680;2024-02-14T19:52:50;1.48;;;1.38;;
25637;SDS011;13496;51.040;13.680;2024-02-14T19:57:52;1.58;;;1.40;;
25637;SDS011;13496;51.040;13.680;2024-02-14T20:02:54;2.15;;;1.08;;
25637;SDS011;13496;51.040;13.680;2024-02-14T20:07:55;1.67;;;1.48;;
25637;SDS011;13496;51.040;13.680;2024-02-14T20:12:58;1.27;;;1.17;;
25637;SDS011;13496;51.040;13.680;2024-02-14T20:18:01;1.33;;;1.23;;
25637;SDS011;13496;51.040;13.680;2024-02-14T20:23:03;2.35;;;1.40;;
25637;SDS011;13496;51.040;13.680;2024-02-14T20:28:05;1.35;;;1.20;;
25637;SDS011;13496;51.040;13.680;2024-02-14T20:33:06;1.75;;;1.27;;
25637;SDS011;13496;51.040;13.680;2024-02-14T20:38:08;1.40;;;1.30;;
25637;SDS011;13496;51.040;13.680;2024-02-14T20:43:11;2.25;;;1.63;;
25637;SDS011;13496;51.040;13.680;2024-02-14T20:48:13;3.85;;;1.90;;
25637;SDS011;13496;51.040;13.680;2024-02-14T20:53:15;1.33;;;1.23;;
25637;SDS011;13496;51.040;13.680;2024-02-14T20:58:16;1.42;;;1.33;;
25637;SDS011;13496;51.040;13.680;2024-02-14T21:03:18;1.65;;;1.55;;
25637;SDS011;13496;51.040;13.680;2024-02-14T21:08:20;1.52;;;1.42;;
25637;SDS011;13496;51.040;13.680;2024-02-14T21:13:22;1.60;;;1.50;;
25637;SDS011;13496;51.040;13.680;2024-02-14T21:18:24;1.67;;;1.20;;
25637;SDS011;13496;51.040;13.680;2024-02-14T21:23:26;1.85;;;1.42;;
25637;SDS011;13496;51.040;13.680;2024-02-14T21:28:28;1.52;;;1.42;;
25637;SDS011;13496;51.040;13.680;2024-02-14T21:33:29;1.75;;;1.42;;
25637;SDS011;13496;51.040;13.680;2024-02-14T21:38:31;2.08;;;1.50;;
25637;SDS011;13496;51.040;13.680;2024-02-14T21:43:33;2.42;;;1.60;;
25637;SDS011;13496;51.040;13.680;2024-02-14T21:48:35;4.35;;;1.67;;
25637;SDS011;13496;51.040;13.680;2024-02-14T21:53:37;1.70;;;1.40;;
25637;SDS011;13496;51.040;13.680;2024-02-14T21:58:39;1.73;;;1.63;;
25637;SDS011;13496;51.040;13.680;2024-02-14T22:03:41;1.40;;;1.30;;
25637;SDS011;13496;51.040;13.680;2024-02-14T22:08:43;2.33;;;1.58;;
25637;SDS011;13496;51.040;13.680;2024-02-14T22:13:45;1.40;;;1.30;;
25637;SDS011;13496;51.040;13.680;2024-02-14T22:18:49;1.63;;;1.30;;
25637;SDS011;13496;51.040;13.680;2024-02-14T22:23:50;1.63;;;1.52;;
25637;SDS011;13496;51.040;13.680;2024-02-14T22:28:52;1.50;;;1.40;;
25637;SDS011;13496;51.040;13.680;2024-02-14T22:33:54;1.63;;;1.52;;
25637;SDS011;13496;51.040;13.680;2024-02-14T22:38:58;1.73;;;1.35;;
25637;SDS011;13496;51.040;13.680;2024-02-14T22:44:00;1.85;;;1.48;;
25637;SDS011;13496;51.040;13.680;2024-02-14T22:49:02;1.95;;;1.67;;
25637;SDS011;13496;51.040;13.680;2024-02-14T22:54:04;1.48;;;1.38;;
25637;SDS011;13496;51.040;13.680;2024-02-14T22:59:06;1.85;;;1.52;;
25637;SDS011;13496;51.040;13.680;2024-02-14T23:04:08;1.38;;;1.27;;
25637;SDS011;13496;51.040;13.680;2024-02-14T23:09:11;1.63;;;1.50;;
25637;SDS011;13496;51.040;13.680;2024-02-14T23:14:14;2.88;;;1.20;;
25637;SDS011;13496;51.040;13.680;2024-02-14T23:19:18;1.48;;;1.38;;
25637;SDS011;13496;51.040;13.680;2024-02-14T23:24:20;1.50;;;1.40;;
25637;SDS011;13496;51.040;13.680;2024-02-14T23:29:22;2.17;;;1.40;;
25637;SDS011;13496;51.040;13.680;2024-02-14T23:34:24;3.22;;;1.50;;
25637;SDS011;13496;51.040;13.680;2024-02-14T23:39:26;1.40;;;1.30;;
25637;SDS011;13496;51.040;13.680;2024-02-14T23:44:28;1.40;;;1.30;;
25637;SDS011;13496;51.040;13.680;2024-02-14T23:49:29;1.30;;;1.20;;
25637;SDS011;13496;51.040;13.680;2024-02-14T23:54:31;1.42;;;1.33;;
25637;SDS011;13496;51.040;13.680;2024-02-14T23:59:33;1.42;;;1.33;;
